Time;durP1;ratioP1;P1;durP2;ratioP2;P2;SDS_P1;SDS_P2;PMS_P1;PMS_P2;Temp;Humidity;BMP_temperature;BMP_pressure;BME280_temperature;BME280_humidity;BME280_pressure;Samples;Min_cycle;Max_cycle;Signal;HPM_P1;HPM_P2
2021/11/18 00:01:30;;;;;;;3.70;1.63;;;5.30;99.90;;;;;;5050993;28;20037;-54
2021/11/18 00:03:56;;;;;;;5.00;1.60;;;5.20;99.90;;;;;;5061383;28;20020;-56
2021/11/18 00:06:22;;;;;;;10.18;2.05;;;5.20;99.90;;;;;;5069339;28;20028;-53
2021/11/18 00:08:48;;;;;;;6.47;2.05;;;5.20;99.90;;;;;;5069013;28;20052;-52
2021/11/18 00:11:17;;;;;;;9.25;2.60;;;5.20;99.90;;;;;;5068074;28;20028;-58
2021/11/18 00:13:46;;;;;;;5.97;2.08;;;5.10;99.90;;;;;;5068440;28;20121;-51
2021/11/18 00:16:11;;;;;;;8.05;2.58;;;5.20;99.90;;;;;;5069537;28;20405;-55
2021/11/18 00:18:38;;;;;;;5.15;2.28;;;5.10;99.90;;;;;;5058531;28;20036;-52
2021/11/18 00:21:14;;;;;;;7.18;2.10;;;5.10;99.90;;;;;;5050698;28;20510;-52
2021/11/18 00:23:44;;;;;;;11.27;2.83;;;5.20;99.90;;;;;;5043890;28;20519;-52
2021/11/18 00:26:10;;;;;;;7.68;2.97;;;5.20;99.90;;;;;;5061262;28;20107;-55
2021/11/18 00:28:36;;;;;;;10.50;2.10;;;5.20;99.90;;;;;;5055919;28;20021;-54
2021/11/18 00:31:03;;;;;;;6.25;2.00;;;5.30;99.90;;;;;;5050798;28;20064;-55
2021/11/18 00:33:28;;;;;;;7.22;1.77;;;5.30;99.90;;;;;;5049596;28;20037;-54
2021/11/18 00:35:54;;;;;;;10.15;3.13;;;5.30;99.90;;;;;;5032055;28;20043;-53
2021/11/18 00:38:21;;;;;;;15.57;2.28;;;5.30;99.90;;;;;;5063997;28;20038;-56
2021/11/18 00:40:49;;;;;;;4.85;1.85;;;5.30;99.90;;;;;;5046679;28;20032;-55
2021/11/18 00:43:17;;;;;;;5.28;2.28;;;5.30;99.90;;;;;;5057287;28;20035;-53
2021/11/18 00:45:43;;;;;;;10.75;2.60;;;5.20;99.90;;;;;;5049471;28;20040;-56
2021/11/18 00:48:09;;;;;;;11.88;2.20;;;5.20;99.90;;;;;;5030908;28;20049;-53
2021/11/18 00:50:57;;;;;;;3.05;1.58;;;5.20;99.90;;;;;;5055660;28;20438;-56
2021/11/18 00:53:23;;;;;;;5.65;2.17;;;5.20;99.90;;;;;;5068243;28;20044;-56
2021/11/18 00:55:50;;;;;;;5.60;1.90;;;5.10;99.90;;;;;;5050852;28;20086;-54
2021/11/18 00:58:16;;;;;;;9.73;1.98;;;5.10;99.90;;;;;;5059690;28;20020;-54
2021/11/18 01:00:44;;;;;;;7.00;2.03;;;5.10;99.90;;;;;;5049546;28;20032;-57
2021/11/18 01:03:10;;;;;;;5.80;1.65;;;5.10;99.90;;;;;;5048806;28;20017;-58
2021/11/18 01:05:40;;;;;;;8.05;2.03;;;5.00;99.90;;;;;;5053788;28;20032;-53
2021/11/18 01:08:06;;;;;;;9.85;1.88;;;5.00;99.90;;;;;;5067712;28;20024;-57
2021/11/18 01:10:38;;;;;;;7.20;1.55;;;5.00;99.90;;;;;;5053503;28;20021;-53
2021/11/18 01:13:06;;;;;;;8.23;1.95;;;5.00;99.90;;;;;;5051064;28;20047;-56
2021/11/18 01:15:35;;;;;;;5.53;1.48;;;5.00;99.90;;;;;;5065276;28;20128;-52
2021/11/18 01:18:01;;;;;;;5.55;1.52;;;5.00;99.90;;;;;;5053913;28;20021;-55
2021/11/18 01:20:28;;;;;;;4.68;1.25;;;4.90;99.90;;;;;;5056348;28;20090;-53
2021/11/18 01:22:57;;;;;;;6.65;2.15;;;4.90;99.90;;;;;;5048162;28;20357;-54
2021/11/18 01:25:23;;;;;;;7.85;2.28;;;4.90;99.90;;;;;;5050188;28;20036;-56
2021/11/18 01:27:49;;;;;;;7.65;1.85;;;4.80;99.90;;;;;;5066572;28;20029;-53
2021/11/18 01:30:20;;;;;;;6.85;2.03;;;4.90;99.90;;;;;;5041844;28;20485;-57
2021/11/18 01:32:47;;;;;;;11.15;3.00;;;4.90;99.90;;;;;;5054505;28;20029;-52
2021/11/18 01:35:13;;;;;;;17.90;3.15;;;5.00;99.90;;;;;;5062815;28;20033;-54
2021/11/18 01:37:38;;;;;;;9.70;2.95;;;5.00;99.90;;;;;;5050104;28;20102;-53
2021/11/18 01:40:10;;;;;;;13.88;2.67;;;5.00;99.90;;;;;;5030744;28;20044;-53
2021/11/18 01:42:36;;;;;;;16.67;2.78;;;5.00;99.90;;;;;;5061850;28;20112;-57
2021/11/18 01:45:05;;;;;;;22.30;3.20;;;5.00;99.90;;;;;;5066824;28;20104;-54
2021/11/18 01:47:32;;;;;;;7.90;2.42;;;5.00;99.90;;;;;;5066445;28;20550;-56
2021/11/18 01:49:57;;;;;;;12.90;2.45;;;5.00;99.90;;;;;;5062033;28;20032;-55
2021/11/18 01:52:27;;;;;;;9.07;2.40;;;5.10;99.90;;;;;;5048516;28;20502;-56
2021/11/18 01:54:54;;;;;;;12.45;2.20;;;5.10;99.90;;;;;;5048444;28;20033;-54
2021/11/18 01:57:25;;;;;;;14.43;2.50;;;5.20;99.90;;;;;;5049297;28;20116;-53
2021/11/18 01:59:51;;;;;;;13.45;2.92;;;5.20;99.90;;;;;;5044630;28;20225;-56
2021/11/18 02:02:18;;;;;;;10.52;2.90;;;5.10;99.90;;;;;;5062033;28;20040;-53
2021/11/18 02:04:54;;;;;;;16.10;2.70;;;5.20;99.90;;;;;;5050179;28;20477;-54
2021/11/18 02:07:20;;;;;;;7.82;2.03;;;5.20;99.90;;;;;;5038194;28;20047;-56
2021/11/18 02:09:49;;;;;;;9.27;2.90;;;5.20;99.90;;;;;;5060960;28;20040;-54
2021/11/18 02:12:28;;;;;;;9.02;2.95;;;5.10;99.90;;;;;;5049016;28;20508;-56
2021/11/18 02:14:54;;;;;;;9.95;3.08;;;5.10;99.90;;;;;;5068745;28;20038;-55
2021/11/18 02:17:23;;;;;;;14.48;2.08;;;5.10;99.90;;;;;;5068685;28;20517;-52
2021/11/18 02:20:00;;;;;;;12.60;2.40;;;5.10;99.90;;;;;;5051800;28;20039;-54
2021/11/18 02:22:28;;;;;;;9.93;2.83;;;5.10;99.90;;;;;;5056317;28;20025;-53
2021/11/18 02:25:00;;;;;;;10.30;2.80;;;5.00;99.90;;;;;;5063651;28;20029;-55
2021/11/18 02:27:28;;;;;;;10.07;3.00;;;5.00;99.90;;;;;;5034159;28;20055;-53
2021/11/18 02:29:56;;;;;;;8.70;2.58;;;5.00;99.90;;;;;;5034891;28;20048;-52
2021/11/18 02:32:32;;;;;;;9.05;2.80;;;5.00;99.90;;;;;;5060408;28;20024;-56
2021/11/18 02:35:00;;;;;;;;;;;5.10;99.90;;;;;;5072120;28;20090;-51
2021/11/18 02:37:26;;;;;;;5.00;2.17;;;5.10;99.90;;;;;;5057559;28;19920;-56
2021/11/18 02:39:52;;;;;;;8.65;2.40;;;5.10;99.90;;;;;;5051209;28;20029;-52
2021/11/18 02:42:19;;;;;;;15.00;2.97;;;5.10;99.90;;;;;;5068077;28;20025;-57
2021/11/18 02:44:45;;;;;;;13.05;2.10;;;5.10;99.90;;;;;;5056722;28;20408;-55
2021/11/18 02:47:12;;;;;;;15.90;3.08;;;5.10;99.90;;;;;;5052581;28;20037;-54
2021/11/18 02:49:44;;;;;;;11.15;2.83;;;5.10;99.90;;;;;;5050788;28;20516;-54
2021/11/18 02:52:17;;;;;;;9.57;3.10;;;5.10;99.90;;;;;;5059899;28;20024;-56
2021/11/18 02:54:44;;;;;;;10.02;2.08;;;5.20;99.90;;;;;;5069153;28;20033;-51
2021/11/18 02:57:09;;;;;;;4.90;1.88;;;5.10;99.90;;;;;;5069756;28;20029;-54
2021/11/18 02:59:36;;;;;;;9.70;2.88;;;5.20;99.90;;;;;;5065509;28;20063;-56
2021/11/18 03:02:04;;;;;;;7.03;2.80;;;5.10;99.90;;;;;;5057959;28;20107;-53
2021/11/18 03:04:31;;;;;;;14.10;2.90;;;5.20;99.90;;;;;;5044539;28;20480;-54
2021/11/18 03:06:59;;;;;;;12.05;2.78;;;5.20;99.90;;;;;;5050762;28;20024;-53
2021/11/18 03:09:25;;;;;;;9.80;2.67;;;5.20;99.90;;;;;;5032683;28;20064;-53
2021/11/18 03:11:50;;;;;;;12.98;2.80;;;5.20;99.90;;;;;;5050961;28;20056;-57
2021/11/18 03:14:16;;;;;;;19.45;2.90;;;5.20;99.90;;;;;;5050935;28;20399;-54
2021/11/18 03:16:42;;;;;;;15.30;3.00;;;5.20;99.90;;;;;;5053414;28;20029;-55
2021/11/18 03:19:07;;;;;;;17.60;2.30;;;5.20;99.90;;;;;;5050591;28;20622;-51
2021/11/18 03:21:34;;;;;;;11.30;2.35;;;5.20;99.90;;;;;;5050666;28;20025;-52
2021/11/18 03:23:59;;;;;;;8.13;2.60;;;5.20;99.90;;;;;;5064014;28;20025;-55
2021/11/18 03:26:29;;;;;;;14.05;3.22;;;5.20;99.90;;;;;;5068106;28;20484;-53
2021/11/18 03:28:55;;;;;;;13.73;2.80;;;5.20;99.90;;;;;;5069475;28;20029;-56
2021/11/18 03:31:20;;;;;;;11.07;2.53;;;5.20;99.90;;;;;;5051394;28;20055;-54
2021/11/18 03:33:53;;;;;;;14.75;3.40;;;5.20;99.90;;;;;;5062110;28;20032;-52
2021/11/18 03:36:20;;;;;;;12.45;2.45;;;5.20;99.90;;;;;;5061228;28;20078;-54
2021/11/18 03:38:46;;;;;;;7.60;2.30;;;5.20;99.90;;;;;;5069343;28;20042;-56
2021/11/18 03:41:12;;;;;;;7.70;2.22;;;5.30;99.90;;;;;;5070307;28;20125;-55
2021/11/18 03:43:44;;;;;;;14.93;3.30;;;5.30;99.90;;;;;;5069926;28;20126;-53
2021/11/18 03:46:12;;;;;;;13.45;3.00;;;5.40;99.90;;;;;;5052472;28;20518;-55
2021/11/18 03:48:38;;;;;;;13.77;2.85;;;5.40;99.90;;;;;;5055937;28;20083;-52
2021/11/18 03:51:06;;;;;;;12.98;3.17;;;5.40;99.90;;;;;;5051125;28;20031;-51
2021/11/18 03:53:37;;;;;;;11.48;3.17;;;5.50;99.90;;;;;;5057810;28;20660;-53
2021/11/18 03:56:19;;;;;;;13.35;2.72;;;5.60;99.90;;;;;;5069507;28;20074;-53
2021/11/18 03:58:45;;;;;;;11.13;2.58;;;5.60;99.90;;;;;;5067771;28;20458;-55
2021/11/18 04:01:11;;;;;;;8.65;3.17;;;5.70;99.90;;;;;;5068306;28;20111;-54
2021/11/18 04:03:38;;;;;;;16.65;3.03;;;5.80;99.90;;;;;;5069107;28;20035;-52
2021/11/18 04:06:06;;;;;;;15.55;2.75;;;5.90;99.90;;;;;;5053594;28;20060;-56
2021/11/18 04:08:31;;;;;;;11.23;3.40;;;5.80;99.90;;;;;;5031726;28;20116;-54
2021/11/18 04:10:57;;;;;;;16.23;3.05;;;5.90;99.90;;;;;;5031901;28;20113;-51
2021/11/18 04:13:24;;;;;;;12.05;3.08;;;5.90;99.90;;;;;;5058656;28;20052;-54
2021/11/18 04:15:50;;;;;;;15.25;2.72;;;5.90;99.90;;;;;;5068391;28;20115;-51
2021/11/18 04:18:18;;;;;;;14.10;3.47;;;5.90;99.90;;;;;;5069521;28;20024;-53
2021/11/18 04:20:43;;;;;;;13.68;3.25;;;6.00;99.90;;;;;;5051022;28;20044;-52
2021/11/18 04:23:09;;;;;;;13.60;3.17;;;6.00;99.90;;;;;;5050225;28;20504;-51
2021/11/18 04:25:37;;;;;;;13.88;3.38;;;6.10;99.90;;;;;;5050485;28;20013;-55
2021/11/18 04:28:04;;;;;;;13.50;3.63;;;6.10;99.90;;;;;;5048518;28;20021;-53
2021/11/18 04:30:50;;;;;;;20.20;4.03;;;6.10;99.90;;;;;;5059512;28;20016;-51
2021/11/18 04:33:16;;;;;;;11.15;3.78;;;6.10;99.90;;;;;;5056390;28;20056;-52
2021/11/18 04:35:42;;;;;;;12.88;3.22;;;6.20;99.90;;;;;;5068285;28;20103;-58
2021/11/18 04:38:08;;;;;;;11.57;3.88;;;6.20;99.90;;;;;;5049819;28;20386;-53
2021/11/18 04:40:34;;;;;;;16.13;3.65;;;6.10;99.90;;;;;;5060006;28;20447;-55
2021/11/18 04:43:03;;;;;;;13.00;3.90;;;6.20;99.90;;;;;;5049449;28;20489;-53
2021/11/18 04:45:30;;;;;;;9.32;3.00;;;6.20;99.90;;;;;;5049184;28;20591;-56
2021/11/18 04:47:55;;;;;;;11.95;3.80;;;6.20;99.90;;;;;;5060631;28;20116;-54
2021/11/18 04:50:22;;;;;;;9.55;3.50;;;6.30;99.90;;;;;;5068322;28;20725;-55
2021/11/18 04:52:48;;;;;;;15.77;4.70;;;6.30;99.90;;;;;;5067512;28;20029;-55
2021/11/18 04:55:19;;;;;;;12.80;3.30;;;6.30;99.90;;;;;;5068741;28;20024;-53
2021/11/18 04:57:45;;;;;;;8.60;3.15;;;6.30;99.90;;;;;;5055663;28;20503;-53
2021/11/18 05:00:18;;;;;;;10.80;3.55;;;6.30;99.90;;;;;;5068950;28;20825;-53
2021/11/18 05:02:45;;;;;;;12.15;3.45;;;6.30;99.90;;;;;;5061501;28;20103;-55
2021/11/18 05:05:10;;;;;;;12.68;3.13;;;6.30;99.90;;;;;;5032827;28;20021;-53
2021/11/18 05:07:36;;;;;;;14.75;2.95;;;6.30;99.90;;;;;;5053002;28;20433;-54
2021/11/18 05:10:04;;;;;;;11.80;3.42;;;6.30;99.90;;;;;;5048627;28;20500;-57
2021/11/18 05:12:30;;;;;;;16.50;3.30;;;6.30;99.90;;;;;;5048436;28;20514;-56
2021/11/18 05:14:56;;;;;;;13.20;3.72;;;6.30;99.90;;;;;;5029485;28;20033;-56
2021/11/18 05:17:21;;;;;;;11.55;3.75;;;6.30;99.90;;;;;;5048456;28;20037;-54
2021/11/18 05:19:47;;;;;;;19.63;4.57;;;6.30;99.90;;;;;;5048068;28;20064;-51
2021/11/18 05:22:13;;;;;;;11.70;3.58;;;6.30;99.90;;;;;;5030412;28;20057;-51
2021/11/18 05:24:38;;;;;;;9.43;4.00;;;6.30;99.90;;;;;;5061327;28;20107;-56
2021/11/18 05:27:04;;;;;;;12.05;3.67;;;6.30;99.90;;;;;;5067911;28;20044;-55
2021/11/18 05:29:29;;;;;;;7.57;3.47;;;6.30;99.90;;;;;;5067440;28;20040;-52
2021/11/18 05:31:55;;;;;;;16.52;4.60;;;6.30;99.90;;;;;;5054616;28;20041;-56
2021/11/18 05:34:21;;;;;;;9.80;3.33;;;6.30;99.90;;;;;;5067030;28;20033;-51
2021/11/18 05:36:47;;;;;;;18.80;4.45;;;6.30;99.90;;;;;;5066080;28;20492;-55
2021/11/18 05:39:12;;;;;;;12.02;3.45;;;6.40;99.90;;;;;;5056570;28;20021;-53
2021/11/18 05:41:38;;;;;;;17.73;3.88;;;6.40;99.90;;;;;;5047822;28;20759;-54
2021/11/18 05:44:04;;;;;;;13.52;3.20;;;6.40;99.90;;;;;;5058971;28;20423;-53
2021/11/18 05:46:32;;;;;;;10.55;4.20;;;6.40;99.90;;;;;;5066177;28;20033;-54
2021/11/18 05:48:59;;;;;;;14.80;4.38;;;6.40;99.90;;;;;;5054379;28;20043;-54
2021/11/18 05:51:25;;;;;;;10.48;3.72;;;6.40;99.90;;;;;;5038553;28;20029;-53
2021/11/18 05:53:51;;;;;;;16.95;4.25;;;6.50;99.90;;;;;;5048055;28;20059;-53
2021/11/18 05:56:19;;;;;;;13.35;3.85;;;6.50;99.90;;;;;;5066772;28;20093;-53
2021/11/18 05:58:51;;;;;;;10.70;3.67;;;6.50;99.90;;;;;;5068003;28;20388;-57
2021/11/18 06:01:19;;;;;;;11.23;3.88;;;6.60;99.90;;;;;;5067725;28;20082;-54
2021/11/18 06:03:45;;;;;;;17.02;4.13;;;6.60;99.90;;;;;;5063845;28;20111;-52
2021/11/18 06:06:11;;;;;;;19.88;4.60;;;6.60;99.90;;;;;;5052003;28;20103;-54
2021/11/18 06:08:38;;;;;;;10.02;3.47;;;6.60;99.90;;;;;;5067478;28;20740;-55
2021/11/18 06:11:05;;;;;;;19.52;4.82;;;6.70;99.90;;;;;;5066552;28;20062;-52
2021/11/18 06:13:33;;;;;;;15.95;4.18;;;6.60;99.90;;;;;;5050296;28;20036;-52
2021/11/18 06:15:59;;;;;;;15.35;3.88;;;6.60;99.90;;;;;;5047394;28;20053;-53
2021/11/18 06:18:25;;;;;;;19.42;4.72;;;6.60;99.90;;;;;;5064215;28;20024;-55
2021/11/18 06:20:51;;;;;;;13.07;4.72;;;6.60;99.90;;;;;;5067483;28;20040;-51
2021/11/18 06:23:17;;;;;;;14.55;3.97;;;6.60;99.90;;;;;;5066506;28;20016;-55
2021/11/18 06:25:43;;;;;;;18.05;3.80;;;6.70;99.90;;;;;;5066636;28;20499;-56
2021/11/18 06:28:13;;;;;;;16.00;3.88;;;6.60;99.90;;;;;;5054284;28;20029;-56
2021/11/18 06:30:44;;;;;;;14.35;4.13;;;6.60;99.90;;;;;;5049138;28;20036;-55
2021/11/18 06:33:10;;;;;;;17.23;4.78;;;6.70;99.90;;;;;;5056104;28;20051;-54
2021/11/18 06:35:36;;;;;;;17.98;4.53;;;6.70;99.90;;;;;;5067744;28;20048;-52
2021/11/18 06:38:02;;;;;;;16.20;4.10;;;6.70;99.90;;;;;;5048453;28;20021;-54
2021/11/18 06:40:28;;;;;;;14.93;4.18;;;6.70;99.90;;;;;;5057807;28;20024;-54
2021/11/18 06:42:54;;;;;;;15.13;4.20;;;6.70;99.90;;;;;;5067147;28;20475;-52
2021/11/18 06:45:24;;;;;;;15.48;4.35;;;6.60;99.90;;;;;;5067184;28;20397;-55
2021/11/18 06:47:49;;;;;;;12.57;4.40;;;6.60;99.90;;;;;;5049276;28;20450;-55
2021/11/18 06:50:16;;;;;;;14.95;3.63;;;6.70;99.90;;;;;;5048843;28;20107;-55
2021/11/18 06:52:42;;;;;;;9.68;4.10;;;6.70;99.90;;;;;;5048437;28;20646;-57
2021/11/18 06:55:10;;;;;;;18.75;3.85;;;6.70;99.90;;;;;;5055920;28;20051;-53
2021/11/18 06:57:35;;;;;;;21.23;4.15;;;6.70;99.90;;;;;;5066391;28;20037;-55
2021/11/18 07:00:02;;;;;;;14.52;3.83;;;6.60;99.90;;;;;;5059287;28;20033;-56
2021/11/18 07:02:28;;;;;;;13.60;4.68;;;6.70;99.90;;;;;;5051373;28;20032;-53
2021/11/18 07:04:53;;;;;;;20.88;5.32;;;6.70;99.90;;;;;;5068391;28;20020;-55
2021/11/18 07:07:19;;;;;;;21.23;4.85;;;6.70;99.90;;;;;;5070148;28;20124;-56
2021/11/18 07:09:45;;;;;;;17.88;4.82;;;6.70;99.90;;;;;;5070157;28;20614;-54
2021/11/18 07:12:14;;;;;;;18.13;4.18;;;6.70;99.90;;;;;;5056929;28;20546;-52
2021/11/18 07:14:41;;;;;;;11.07;3.88;;;6.80;99.90;;;;;;5059154;28;20029;-57
2021/11/18 07:17:07;;;;;;;19.80;5.05;;;6.80;99.90;;;;;;5052795;28;20500;-54
2021/11/18 07:19:33;;;;;;;15.27;4.25;;;6.80;99.90;;;;;;5070460;28;20033;-54
2021/11/18 07:21:59;;;;;;;18.52;4.65;;;6.90;99.90;;;;;;5068832;28;20503;-53
2021/11/18 07:24:25;;;;;;;21.95;4.97;;;6.90;99.90;;;;;;5070306;28;20025;-57
2021/11/18 07:26:51;;;;;;;13.23;5.70;;;6.90;99.90;;;;;;5070533;28;20443;-53
2021/11/18 07:29:17;;;;;;;9.50;4.43;;;6.90;99.90;;;;;;5070349;28;20024;-57
2021/11/18 07:31:43;;;;;;;22.67;5.13;;;6.90;99.90;;;;;;5069638;28;20082;-54
2021/11/18 07:34:08;;;;;;;21.15;5.20;;;6.90;99.90;;;;;;5070519;28;20029;-53
2021/11/18 07:36:34;;;;;;;19.45;5.18;;;7.00;99.90;;;;;;5034311;28;20029;-55
2021/11/18 07:39:00;;;;;;;18.75;5.60;;;7.00;99.90;;;;;;5050281;28;20064;-54
2021/11/18 07:41:26;;;;;;;13.13;5.03;;;7.00;99.90;;;;;;5058685;28;20036;-54
2021/11/18 07:43:52;;;;;;;26.63;5.25;;;7.00;99.90;;;;;;5056282;28;20024;-55
2021/11/18 07:46:18;;;;;;;23.08;6.18;;;7.10;99.90;;;;;;5050718;28;20075;-54
2021/11/18 07:48:46;;;;;;;17.13;4.32;;;7.10;99.90;;;;;;5049985;28;20029;-54
2021/11/18 07:51:13;;;;;;;12.73;4.93;;;7.20;99.90;;;;;;5051961;28;20033;-55
2021/11/18 07:53:40;;;;;;;20.10;5.90;;;7.20;99.90;;;;;;5050168;28;20037;-54
2021/11/18 07:56:06;;;;;;;25.52;4.50;;;7.20;99.90;;;;;;5049860;28;20468;-57
2021/11/18 07:58:32;;;;;;;20.73;5.15;;;7.20;99.90;;;;;;5049720;28;20057;-54
2021/11/18 08:00:57;;;;;;;20.35;6.03;;;7.20;99.90;;;;;;5049747;28;20069;-56
2021/11/18 08:03:24;;;;;;;19.42;5.20;;;7.20;99.90;;;;;;5049965;28;20052;-56
2021/11/18 08:05:50;;;;;;;14.43;5.28;;;7.30;99.90;;;;;;5049088;28;20024;-53
2021/11/18 08:08:15;;;;;;;18.73;5.28;;;7.30;99.90;;;;;;5049371;28;20017;-55
2021/11/18 08:10:41;;;;;;;19.85;5.85;;;7.30;99.90;;;;;;5049519;28;20481;-54
2021/11/18 08:13:08;;;;;;;18.88;5.93;;;7.30;99.90;;;;;;5049531;28;20036;-57
2021/11/18 08:15:33;;;;;;;16.05;5.18;;;7.40;99.90;;;;;;5049707;28;20573;-55
2021/11/18 08:18:00;;;;;;;19.92;5.20;;;7.40;99.90;;;;;;5049262;28;20025;-58
2021/11/18 08:20:25;;;;;;;16.92;4.53;;;7.50;99.90;;;;;;5049607;28;20493;-54
2021/11/18 08:22:52;;;;;;;15.30;5.78;;;7.50;99.90;;;;;;5049121;28;20040;-55
2021/11/18 08:25:20;;;;;;;16.65;4.88;;;7.50;99.90;;;;;;5049328;28;20100;-57
2021/11/18 08:27:46;;;;;;;22.00;4.82;;;7.60;99.90;;;;;;5049380;28;20025;-60
2021/11/18 08:30:15;;;;;;;17.20;6.10;;;7.60;99.90;;;;;;5050727;28;20040;-52
2021/11/18 08:32:43;;;;;;;18.63;6.07;;;7.60;99.90;;;;;;5049360;28;20025;-54
2021/11/18 08:35:10;;;;;;;15.25;5.10;;;7.70;99.90;;;;;;5050071;28;20500;-52
2021/11/18 08:37:36;;;;;;;27.65;6.15;;;7.70;99.90;;;;;;5061135;28;20481;-53
2021/11/18 08:40:03;;;;;;;22.20;6.47;;;7.70;99.90;;;;;;5051612;28;20020;-53
2021/11/18 08:42:29;;;;;;;19.52;6.75;;;7.80;99.90;;;;;;5058523;28;20025;-56
2021/11/18 08:44:55;;;;;;;20.30;6.55;;;7.90;99.90;;;;;;5049442;28;20013;-58
2021/11/18 08:47:22;;;;;;;24.13;6.82;;;7.80;99.90;;;;;;5031859;28;20025;-55
2021/11/18 08:49:48;;;;;;;19.13;5.35;;;7.90;99.90;;;;;;5048986;28;20033;-55
2021/11/18 08:52:17;;;;;;;30.30;7.68;;;7.90;99.90;;;;;;5049340;28;20443;-56
2021/11/18 08:54:46;;;;;;;18.17;6.65;;;7.90;99.90;;;;;;5048916;28;20036;-53
2021/11/18 08:57:12;;;;;;;21.83;6.10;;;8.00;99.90;;;;;;5049900;28;20503;-53
2021/11/18 08:59:38;;;;;;;15.77;6.13;;;8.00;99.90;;;;;;5066715;28;20036;-52
2021/11/18 09:02:12;;;;;;;19.25;7.40;;;8.00;99.90;;;;;;5068342;28;20020;-53
2021/11/18 09:04:37;;;;;;;15.63;5.68;;;8.00;99.90;;;;;;5069291;28;20070;-58
2021/11/18 09:07:03;;;;;;;18.42;7.03;;;8.00;99.90;;;;;;5052024;28;20680;-54
2021/11/18 09:09:30;;;;;;;18.45;6.07;;;8.00;99.90;;;;;;5048648;28;20189;-49
2021/11/18 09:11:57;;;;;;;17.02;6.80;;;8.00;99.90;;;;;;5067818;28;20065;-52
2021/11/18 09:14:25;;;;;;;16.58;6.60;;;8.00;99.90;;;;;;5068475;28;20035;-51
2021/11/18 09:16:51;;;;;;;27.40;7.20;;;8.10;99.90;;;;;;5066672;28;20033;-53
2021/11/18 09:19:20;;;;;;;24.25;7.88;;;8.10;99.90;;;;;;5062709;28;20048;-52
2021/11/18 09:21:48;;;;;;;21.73;7.25;;;8.10;99.90;;;;;;5048792;28;20147;-54
2021/11/18 09:24:27;;;;;;;15.30;6.28;;;8.10;99.90;;;;;;5048850;28;20052;-54
2021/11/18 09:27:05;;;;;;;18.02;7.07;;;8.10;99.90;;;;;;5048351;28;20021;-50
2021/11/18 09:29:31;;;;;;;20.30;6.85;;;8.20;99.90;;;;;;5049355;28;20494;-52
2021/11/18 09:31:58;;;;;;;19.20;7.45;;;8.20;99.90;;;;;;5047861;28;20144;-52
2021/11/18 09:34:25;;;;;;;19.83;6.63;;;8.20;99.90;;;;;;5049132;28;20475;-55
2021/11/18 09:36:52;;;;;;;20.40;7.30;;;8.20;99.90;;;;;;5048745;28;20038;-53
2021/11/18 09:39:18;;;;;;;15.88;6.13;;;8.20;99.90;;;;;;5062851;28;20108;-55
2021/11/18 09:42:05;;;;;;;17.15;6.53;;;8.20;99.90;;;;;;5068217;28;20625;-50
2021/11/18 09:44:49;;;;;;;18.55;6.25;;;8.30;99.90;;;;;;5064980;28;20024;-54
2021/11/18 09:47:17;;;;;;;22.67;6.85;;;8.30;99.90;;;;;;5066524;28;20021;-56
2021/11/18 09:49:58;;;;;;;13.65;6.43;;;8.30;99.90;;;;;;5051509;28;20526;-55
2021/11/18 09:52:43;;;;;;;20.70;6.88;;;8.40;99.90;;;;;;5046253;28;20492;-51
2021/11/18 09:55:12;;;;;;;19.52;6.43;;;8.30;99.90;;;;;;5045007;28;20088;-53
2021/11/18 09:58:15;;;;;;;26.55;7.45;;;8.40;99.90;;;;;;5049393;28;20065;-55
2021/11/18 10:01:15;;;;;;;25.08;8.15;;;8.40;99.90;;;;;;5055344;28;20036;-57
2021/11/18 10:04:23;;;;;;;15.00;6.28;;;8.30;99.90;;;;;;5051444;28;20059;-53
2021/11/18 10:06:54;;;;;;;19.00;7.07;;;8.30;99.90;;;;;;5051327;28;20036;-56
2021/11/18 10:09:32;;;;;;;25.60;6.75;;;8.40;99.90;;;;;;5055580;28;20029;-57
2021/11/18 10:12:19;;;;;;;20.10;7.10;;;8.40;99.90;;;;;;5048463;28;20400;-56
2021/11/18 10:14:47;;;;;;;30.00;7.18;;;8.40;99.90;;;;;;5056797;28;20102;-55
2021/11/18 10:17:18;;;;;;;15.75;6.38;;;8.50;99.90;;;;;;5067410;28;20060;-55
2021/11/18 10:19:54;;;;;;;14.55;6.68;;;8.60;99.90;;;;;;5050390;28;20021;-52
2021/11/18 10:22:22;;;;;;;25.50;6.47;;;8.60;99.90;;;;;;5050589;28;20092;-54
2021/11/18 10:24:52;;;;;;;28.30;6.30;;;8.60;99.90;;;;;;5047864;28;20049;-55
2021/11/18 10:27:32;;;;;;;21.38;7.13;;;8.70;99.90;;;;;;5048435;28;20426;-53
2021/11/18 10:30:00;;;;;;;16.92;6.90;;;8.70;99.90;;;;;;5047471;28;20029;-56
2021/11/18 10:32:31;;;;;;;18.88;6.35;;;8.70;99.90;;;;;;5054956;28;20037;-53
2021/11/18 10:35:07;;;;;;;21.55;7.30;;;8.70;99.90;;;;;;5051456;28;20033;-53
2021/11/18 10:37:40;;;;;;;22.50;6.32;;;8.70;99.90;;;;;;5051075;28;20068;-54
2021/11/18 10:40:13;;;;;;;19.65;6.68;;;8.80;99.90;;;;;;5051291;28;20025;-53
2021/11/18 10:43:17;;;;;;;18.02;5.55;;;8.80;99.90;;;;;;5064479;28;20103;-55
2021/11/18 10:46:11;;;;;;;22.85;6.60;;;8.90;99.90;;;;;;5045808;28;20032;-53
2021/11/18 10:48:53;;;;;;;18.67;6.32;;;8.90;99.90;;;;;;5068157;28;20178;-55
2021/11/18 10:51:37;;;;;;;18.40;6.18;;;9.00;99.90;;;;;;5051422;28;20102;-54
2021/11/18 10:54:06;;;;;;;22.65;6.50;;;9.00;99.90;;;;;;5051027;28;20021;-53
2021/11/18 10:56:46;;;;;;;23.00;7.28;;;9.10;99.90;;;;;;5051959;28;20136;-52
2021/11/18 10:59:15;;;;;;;16.02;5.90;;;9.10;99.90;;;;;;5054084;28;20032;-54
2021/11/18 11:01:44;;;;;;;22.48;7.38;;;9.10;99.90;;;;;;5063943;28;20433;-51
2021/11/18 11:04:31;;;;;;;18.98;6.07;;;9.20;99.90;;;;;;5071088;28;20021;-51
2021/11/18 11:06:57;;;;;;;;;;;9.20;99.90;;;;;;5069139;28;20052;-53
2021/11/18 11:09:33;;;;;;;15.60;5.57;;;9.30;99.90;;;;;;5055816;28;20520;-51
2021/11/18 11:12:26;;;;;;;20.88;6.65;;;9.30;99.90;;;;;;5053539;28;20108;-54
2021/11/18 11:15:24;;;;;;;24.52;5.50;;;9.30;99.90;;;;;;5040518;28;20056;-52
2021/11/18 11:18:31;;;;;;;18.73;5.43;;;9.30;99.90;;;;;;5064471;28;20036;-49
2021/11/18 11:21:11;;;;;;;10.70;5.88;;;9.40;99.90;;;;;;5070165;28;20020;-53
2021/11/18 11:23:59;;;;;;;18.17;5.82;;;9.40;99.90;;;;;;5071341;28;20020;-54
2021/11/18 11:26:33;;;;;;;18.13;6.10;;;9.40;99.90;;;;;;5069471;28;20032;-52
2021/11/18 11:29:35;;;;;;;19.23;5.00;;;9.40;99.90;;;;;;5069926;28;20033;-51
2021/11/18 11:32:00;;;;;;;26.10;6.10;;;9.40;99.90;;;;;;5070707;28;20103;-52
2021/11/18 11:34:42;;;;;;;28.58;5.72;;;9.50;99.90;;;;;;5070630;28;20460;-49
2021/11/18 11:37:16;;;;;;;16.70;5.57;;;9.50;99.90;;;;;;5070437;28;20032;-52
2021/11/18 11:40:03;;;;;;;14.38;5.10;;;9.50;99.90;;;;;;5070337;28;20162;-54
2021/11/18 11:42:59;;;;;;;22.02;5.38;;;9.50;99.90;;;;;;5070320;28;20028;-51
2021/11/18 11:45:52;;;;;;;19.00;5.63;;;9.50;99.90;;;;;;5070304;28;20017;-57
2021/11/18 11:48:39;;;;;;;19.38;5.43;;;9.50;99.90;;;;;;5069822;28;20430;-55
2021/11/18 11:51:27;;;;;;;16.50;5.38;;;9.50;99.90;;;;;;5052599;28;20112;-54
2021/11/18 11:54:35;;;;;;;13.73;5.43;;;9.50;99.90;;;;;;5069399;28;20036;-56
2021/11/18 11:57:16;;;;;;;12.98;4.97;;;9.50;99.90;;;;;;5069570;28;20499;-55
2021/11/18 11:59:46;;;;;;;17.75;5.15;;;9.50;99.90;;;;;;5069358;28;20451;-55
2021/11/18 12:02:39;;;;;;;16.35;5.03;;;9.50;99.90;;;;;;5070033;28;20090;-55
2021/11/18 12:05:11;;;;;;;13.27;4.80;;;9.50;99.90;;;;;;5069822;28;20455;-55
2021/11/18 12:07:53;;;;;;;18.13;6.55;;;9.40;99.90;;;;;;5069256;28;20032;-56
2021/11/18 12:10:53;;;;;;;13.43;4.93;;;9.30;99.90;;;;;;5068512;28;20036;-52
2021/11/18 12:13:21;;;;;;;22.83;6.25;;;9.40;99.90;;;;;;5049607;28;20029;-55
2021/11/18 12:15:50;;;;;;;16.75;6.47;;;9.40;99.90;;;;;;5053339;28;20025;-56
2021/11/18 12:18:24;;;;;;;16.67;5.35;;;9.40;99.90;;;;;;5054307;28;20111;-54
2021/11/18 12:20:50;;;;;;;14.82;6.47;;;9.30;99.90;;;;;;5050909;28;20115;-50
2021/11/18 12:23:18;;;;;;;20.75;7.00;;;9.30;99.90;;;;;;5053515;28;20459;-52
2021/11/18 12:26:15;;;;;;;14.73;4.65;;;9.40;99.90;;;;;;5063640;28;20028;-57
2021/11/18 12:29:00;;;;;;;14.13;4.93;;;9.40;99.90;;;;;;5042135;28;20032;-54
2021/11/18 12:31:30;;;;;;;20.60;8.82;;;9.30;99.90;;;;;;5053700;28;20053;-51
2021/11/18 12:34:04;;;;;;;20.30;7.47;;;9.40;99.90;;;;;;5048477;28;20052;-54
2021/11/18 12:36:35;;;;;;;18.40;8.85;;;9.40;99.90;;;;;;5059157;28;20055;-54
2021/11/18 12:39:20;;;;;;;16.33;6.85;;;9.40;99.90;;;;;;5049384;28;20024;-53
2021/11/18 12:42:16;;;;;;;17.83;6.22;;;9.40;99.90;;;;;;5031501;28;20017;-49
2021/11/18 12:45:13;;;;;;;15.65;5.97;;;9.30;99.90;;;;;;5057065;28;20143;-54
2021/11/18 12:47:47;;;;;;;;;;;9.30;99.90;;;;;;4996612;28;20081;-52
2021/11/18 12:50:34;;;;;;;13.30;4.75;;;9.30;99.90;;;;;;5055876;28;19958;-52
2021/11/18 12:53:12;;;;;;;12.60;5.18;;;9.30;99.90;;;;;;5051148;28;20485;-53
2021/11/18 12:56:02;;;;;;;23.85;6.60;;;9.30;99.90;;;;;;5035497;28;20021;-53
2021/11/18 12:58:49;;;;;;;23.90;8.95;;;9.30;99.90;;;;;;5044321;28;20036;-52
2021/11/18 13:01:20;;;;;;;16.83;7.03;;;9.30;99.90;;;;;;5054405;28;20044;-55
2021/11/18 13:03:46;;;;;;;19.15;8.18;;;9.20;99.90;;;;;;5044443;28;20035;-52
2021/11/18 13:06:32;;;;;;;16.35;7.53;;;9.20;99.90;;;;;;5055821;28;20029;-52
2021/11/18 13:09:00;;;;;;;28.77;12.02;;;9.20;99.90;;;;;;5030242;28;20033;-52